Time;durP1;ratioP1;P1;durP2;ratioP2;P2;SDS_P1;SDS_P2;PMS_P1;PMS_P2;Temp;Humidity;BMP_temperature;BMP_pressure;BME280_temperature;BME280_humidity;BME280_pressure;Samples;Min_cycle;Max_cycle;Signal;HPM_P1;HPM_P2
2022/10/31 00:02:09;;;;;;;14.13;7.37;;;;;;;;;;5020614;28;20037;-79
2022/10/31 00:04:35;;;;;;;20.70;8.70;;;;;;;;;;5033986;28;20026;-80
2022/10/31 00:07:01;;;;;;;14.00;7.87;;;;;;;;;;5020724;28;20115;-79
2022/10/31 00:09:27;;;;;;;21.60;8.70;;;;;;;;;;5022202;28;20025;-79
2022/10/31 00:11:53;;;;;;;25.47;7.93;;;;;;;;;;5021242;28;20041;-78
2022/10/31 00:14:19;;;;;;;17.93;8.33;;;;;;;;;;5029121;28;20033;-78
2022/10/31 00:16:45;;;;;;;20.90;8.93;;;;;;;;;;5019133;28;20029;-79
2022/10/31 00:19:11;;;;;;;20.37;7.73;;;;;;;;;;5019761;28;20031;-80
2022/10/31 00:21:37;;;;;;;19.90;7.83;;;;;;;;;;5021815;28;20030;-80
2022/10/31 00:24:03;;;;;;;15.43;7.93;;;;;;;;;;5023927;28;20264;-79
2022/10/31 00:26:30;;;;;;;18.90;7.77;;;;;;;;;;5021718;28;20049;-79
2022/10/31 00:28:57;;;;;;;14.30;7.80;;;;;;;;;;5030976;28;20091;-79
2022/10/31 00:31:23;;;;;;;19.23;8.77;;;;;;;;;;5020264;28;20034;-79
2022/10/31 00:33:49;;;;;;;20.73;8.03;;;;;;;;;;5033747;28;20351;-79
2022/10/31 00:36:16;;;;;;;19.97;8.37;;;;;;;;;;5017291;28;20084;-78
2022/10/31 00:38:43;;;;;;;21.70;8.27;;;;;;;;;;5023833;28;20340;-79
2022/10/31 00:41:09;;;;;;;18.37;9.30;;;;;;;;;;5031419;28;20026;-79
2022/10/31 00:43:36;;;;;;;15.40;8.87;;;;;;;;;;5021662;28;20037;-78
2022/10/31 00:46:02;;;;;;;20.47;8.70;;;;;;;;;;5030499;28;20544;-79
2022/10/31 00:48:28;;;;;;;22.43;9.40;;;;;;;;;;5024197;28;20101;-79
2022/10/31 00:50:54;;;;;;;16.93;8.57;;;;;;;;;;5020699;28;20033;-79
2022/10/31 00:53:20;;;;;;;18.50;9.00;;;;;;;;;;5029365;28;20036;-79
2022/10/31 00:55:46;;;;;;;15.00;8.07;;;;;;;;;;5024420;28;20029;-78
2022/10/31 00:58:12;;;;;;;23.17;7.87;;;;;;;;;;5022570;28;20029;-79
2022/10/31 01:00:39;;;;;;;23.43;9.07;;;;;;;;;;5017241;28;20026;-79
2022/10/31 01:03:05;;;;;;;22.63;8.80;;;;;;;;;;5019377;28;20125;-78
2022/10/31 01:05:31;;;;;;;15.93;7.67;;;;;;;;;;5033095;28;20525;-78
2022/10/31 01:07:57;;;;;;;23.40;7.63;;;;;;;;;;5033914;28;20040;-79
2022/10/31 01:10:23;;;;;;;15.20;7.47;;;;;;;;;;5019650;28;20088;-79
2022/10/31 01:12:49;;;;;;;16.93;6.93;;;;;;;;;;5017706;28;20040;-79
2022/10/31 01:15:17;;;;;;;15.07;6.73;;;;;;;;;;5030578;28;20026;-79
2022/10/31 01:17:43;;;;;;;23.73;7.57;;;;;;;;;;5026742;28;20030;-79
2022/10/31 01:20:10;;;;;;;15.40;8.20;;;;;;;;;;5020389;28;20172;-79
2022/10/31 01:22:37;;;;;;;14.50;7.43;;;;;;;;;;5017165;28;20025;-79
2022/10/31 01:25:03;;;;;;;20.53;7.13;;;;;;;;;;5032866;28;20702;-79
2022/10/31 01:27:29;;;;;;;14.60;7.20;;;;;;;;;;5019662;28;20041;-79
2022/10/31 01:29:55;;;;;;;21.40;8.47;;;;;;;;;;5020103;28;20097;-79
2022/10/31 01:32:21;;;;;;;16.93;8.23;;;;;;;;;;5026218;28;20059;-79
2022/10/31 01:34:47;;;;;;;17.17;6.83;;;;;;;;;;5022552;28;20041;-78
2022/10/31 01:37:19;;;;;;;17.10;7.80;;;;;;;;;;5023382;28;20026;-78
2022/10/31 01:39:45;;;;;;;18.45;8.32;;;;;;;;;;5023062;28;20396;-79
2022/10/31 01:42:16;;;;;;;17.87;8.40;;;;;;;;;;5023525;28;20848;-79
2022/10/31 01:44:42;;;;;;;14.50;7.82;;;;;;;;;;5024979;28;21652;-79
2022/10/31 01:47:14;;;;;;;18.73;7.53;;;;;;;;;;5024469;28;20030;-79
2022/10/31 01:49:48;;;;;;;13.75;7.97;;;;;;;;;;5023126;28;20037;-79
2022/10/31 01:52:19;;;;;;;19.47;9.20;;;;;;;;;;5022401;28;20025;-78
2022/10/31 01:54:47;;;;;;;19.73;8.40;;;;;;;;;;5023844;28;20026;-78
2022/10/31 01:57:15;;;;;;;19.43;10.80;;;;;;;;;;5032166;28;20049;-79
2022/10/31 01:59:43;;;;;;;15.80;8.57;;;;;;;;;;5038981;28;20068;-79
2022/10/31 02:02:10;;;;;;;18.83;8.13;;;;;;;;;;5023782;28;20034;-80
2022/10/31 02:04:36;;;;;;;16.93;8.17;;;;;;;;;;5024559;28;20029;-79
2022/10/31 02:07:11;;;;;;;20.33;8.87;;;;;;;;;;5021768;28;20137;-79
2022/10/31 02:09:38;;;;;;;17.07;7.93;;;;;;;;;;5021809;28;20502;-79
2022/10/31 02:12:04;;;;;;;19.27;8.97;;;;;;;;;;5034493;28;20482;-78
2022/10/31 02:14:31;;;;;;;18.33;7.63;;;;;;;;;;5017902;28;20026;-79
2022/10/31 02:16:57;;;;;;;18.60;8.43;;;;;;;;;;5021020;28;20018;-79
2022/10/31 02:19:38;;;;;;;19.60;9.07;;;;;;;;;;5021007;28;20034;-79
2022/10/31 02:22:04;;;;;;;17.63;9.23;;;;;;;;;;5035584;28;20033;-78
2022/10/31 02:24:33;;;;;;;23.80;8.60;;;;;;;;;;5020989;28;20034;-80
2022/10/31 02:26:59;;;;;;;19.13;10.20;;;;;;;;;;5027852;28;20032;-79
2022/10/31 02:29:36;;;;;;;20.10;10.27;;;;;;;;;;5034639;28;20030;-79
2022/10/31 02:32:08;;;;;;;19.97;8.93;;;;;;;;;;5034681;28;20033;-79
2022/10/31 02:34:34;;;;;;;;;;;;;;;;;;5034246;28;20080;-79
2022/10/31 02:37:23;;;;;;;16.53;8.90;;;;;;;;;;5043454;28;19924;-79
2022/10/31 02:40:00;;;;;;;22.00;9.10;;;;;;;;;;5033587;28;20029;-80
2022/10/31 02:42:35;;;;;;;21.30;10.50;;;;;;;;;;5023324;28;20021;-79
2022/10/31 02:45:08;;;;;;;20.30;9.97;;;;;;;;;;5035520;28;20022;-79
2022/10/31 02:47:36;;;;;;;18.80;9.50;;;;;;;;;;5035611;28;20040;-79
2022/10/31 02:50:02;;;;;;;22.17;10.67;;;;;;;;;;5022850;28;20061;-79
2022/10/31 02:52:29;;;;;;;19.97;9.10;;;;;;;;;;5037145;28;20025;-78
2022/10/31 02:54:55;;;;;;;21.80;9.80;;;;;;;;;;5032470;28;20478;-79
2022/10/31 02:57:26;;;;;;;18.77;9.77;;;;;;;;;;5021816;28;20030;-79
2022/10/31 02:59:55;;;;;;;20.37;9.63;;;;;;;;;;5020801;28;20029;-79
2022/10/31 03:02:38;;;;;;;25.70;10.03;;;;;;;;;;5038481;28;20021;-79
2022/10/31 03:05:03;;;;;;;;;;;;;;;;;;5039036;28;20033;-79
2022/10/31 03:07:29;;;;;;;17.40;9.57;;;;;;;;;;5023046;28;19920;-79
2022/10/31 03:10:11;;;;;;;21.13;10.33;;;;;;;;;;5039198;28;20030;-79
2022/10/31 03:12:44;;;;;;;24.38;11.15;;;;;;;;;;5033580;28;20034;-79
2022/10/31 03:15:19;;;;;;;20.27;10.73;;;;;;;;;;5035763;28;20126;-79
2022/10/31 03:17:45;;;;;;;20.57;10.07;;;;;;;;;;5033806;28;20042;-79
2022/10/31 03:20:11;;;;;;;18.60;9.57;;;;;;;;;;5035266;28;20366;-79
2022/10/31 03:22:40;;;;;;;23.00;11.23;;;;;;;;;;5033951;28;20026;-79
2022/10/31 03:25:06;;;;;;;20.77;9.63;;;;;;;;;;5021722;28;20531;-80
2022/10/31 03:27:34;;;;;;;18.63;10.33;;;;;;;;;;5021524;28;21730;-79
2022/10/31 03:30:01;;;;;;;20.90;9.93;;;;;;;;;;5033325;28;20037;-78
2022/10/31 03:32:39;;;;;;;28.00;11.60;;;;;;;;;;5030747;28;20079;-78
2022/10/31 03:35:06;;;;;;;26.20;10.67;;;;;;;;;;5019563;28;20057;-78
2022/10/31 03:37:33;;;;;;;17.80;9.97;;;;;;;;;;5030663;28;20017;-78
2022/10/31 03:40:00;;;;;;;21.03;10.23;;;;;;;;;;5017907;28;20030;-79
2022/10/31 03:42:30;;;;;;;24.17;10.33;;;;;;;;;;5055458;28;20036;-80
2022/10/31 03:45:02;;;;;;;23.97;10.73;;;;;;;;;;5021829;28;20025;-79
2022/10/31 03:47:29;;;;;;;19.85;10.50;;;;;;;;;;5055877;28;20120;-78
2022/10/31 03:49:55;;;;;;;23.03;10.17;;;;;;;;;;5022741;28;20041;-78
2022/10/31 03:52:41;;;;;;;23.27;9.97;;;;;;;;;;5026310;28;20022;-79
2022/10/31 03:55:13;;;;;;;19.13;9.67;;;;;;;;;;5018369;28;20014;-79
2022/10/31 03:57:42;;;;;;;22.77;10.60;;;;;;;;;;5022073;28;21791;-79
2022/10/31 04:00:10;;;;;;;25.17;10.23;;;;;;;;;;5024511;28;20021;-79
2022/10/31 04:02:38;;;;;;;17.90;10.60;;;;;;;;;;5033849;28;20018;-79
2022/10/31 04:05:05;;;;;;;18.07;9.87;;;;;;;;;;5021685;28;20022;-79
2022/10/31 04:07:36;;;;;;;22.33;10.47;;;;;;;;;;5022362;28;20092;-79
2022/10/31 04:10:05;;;;;;;23.52;12.05;;;;;;;;;;5022470;28;20053;-78
2022/10/31 04:12:35;;;;;;;21.90;9.97;;;;;;;;;;5031964;28;20033;-79
2022/10/31 04:15:02;;;;;;;21.57;9.20;;;;;;;;;;5022080;28;20034;-79
2022/10/31 04:17:30;;;;;;;19.77;10.77;;;;;;;;;;5015681;28;20040;-78
2022/10/31 04:19:59;;;;;;;17.97;11.23;;;;;;;;;;5018887;28;20026;-79
2022/10/31 04:22:26;;;;;;;21.27;10.93;;;;;;;;;;5022192;28;21786;-78
2022/10/31 04:24:52;;;;;;;27.30;11.43;;;;;;;;;;5019745;28;20332;-79
2022/10/31 04:27:18;;;;;;;20.47;11.13;;;;;;;;;;5038342;28;20057;-79
2022/10/31 04:29:46;;;;;;;20.80;10.10;;;;;;;;;;5016779;28;20085;-79
2022/10/31 04:32:12;;;;;;;24.37;9.83;;;;;;;;;;5036934;28;20025;-78
2022/10/31 04:34:38;;;;;;;19.33;10.33;;;;;;;;;;5020139;28;20030;-78
2022/10/31 04:37:04;;;;;;;24.83;11.03;;;;;;;;;;5020399;28;20053;-79
2022/10/31 04:39:30;;;;;;;21.10;11.17;;;;;;;;;;5020913;28;20030;-79
2022/10/31 04:41:56;;;;;;;25.60;11.77;;;;;;;;;;5032588;28;21740;-78
2022/10/31 04:44:22;;;;;;;21.77;10.20;;;;;;;;;;5017937;28;20026;-78
2022/10/31 04:46:48;;;;;;;19.93;9.57;;;;;;;;;;5017087;28;20038;-78
2022/10/31 04:49:14;;;;;;;22.47;10.30;;;;;;;;;;5029424;28;20034;-78
2022/10/31 04:51:40;;;;;;;20.03;10.97;;;;;;;;;;5041184;28;20056;-77
2022/10/31 04:54:06;;;;;;;26.67;10.73;;;;;;;;;;5026349;28;20040;-79
2022/10/31 04:56:32;;;;;;;19.23;11.07;;;;;;;;;;5020220;28;20104;-78
2022/10/31 04:58:58;;;;;;;19.97;10.10;;;;;;;;;;5030915;28;20026;-79
2022/10/31 05:01:24;;;;;;;24.23;10.27;;;;;;;;;;5019441;28;20033;-79
2022/10/31 05:03:52;;;;;;;24.60;10.77;;;;;;;;;;5034306;28;20030;-79
2022/10/31 05:06:21;;;;;;;25.93;11.23;;;;;;;;;;5021017;28;20096;-79
2022/10/31 05:08:47;;;;;;;22.27;10.43;;;;;;;;;;5019227;28;20091;-79
2022/10/31 05:11:13;;;;;;;24.83;11.33;;;;;;;;;;5021125;28;20069;-79
2022/10/31 05:13:39;;;;;;;21.13;10.47;;;;;;;;;;5021412;28;20061;-78
2022/10/31 05:16:05;;;;;;;27.93;11.37;;;;;;;;;;5016087;28;20056;-79
2022/10/31 05:18:31;;;;;;;21.10;10.77;;;;;;;;;;5022093;28;20502;-78
2022/10/31 05:20:57;;;;;;;21.67;10.83;;;;;;;;;;5017820;28;20037;-78
2022/10/31 05:23:23;;;;;;;22.60;11.93;;;;;;;;;;5015045;28;20044;-79
2022/10/31 05:25:49;;;;;;;27.90;11.90;;;;;;;;;;5019370;28;20037;-79
2022/10/31 05:28:15;;;;;;;19.27;10.60;;;;;;;;;;5019514;28;20025;-79
2022/10/31 05:30:41;;;;;;;18.93;9.83;;;;;;;;;;5032041;28;20025;-78
2022/10/31 05:33:07;;;;;;;23.73;10.17;;;;;;;;;;5032539;28;20107;-79
2022/10/31 05:35:34;;;;;;;19.43;10.27;;;;;;;;;;5019061;28;20033;-79
2022/10/31 05:38:00;;;;;;;23.03;11.60;;;;;;;;;;5019120;28;20022;-78
2022/10/31 05:40:27;;;;;;;18.57;10.50;;;;;;;;;;5028403;28;20033;-77
2022/10/31 05:42:58;;;;;;;17.27;9.93;;;;;;;;;;5033060;28;20053;-79
2022/10/31 05:45:24;;;;;;;25.20;10.60;;;;;;;;;;5034171;28;20065;-79
2022/10/31 05:47:51;;;;;;;20.00;9.67;;;;;;;;;;5031787;28;20077;-77
2022/10/31 05:50:17;;;;;;;17.60;10.10;;;;;;;;;;5014906;28;20048;-79
2022/10/31 05:52:43;;;;;;;19.97;10.30;;;;;;;;;;5016890;28;20080;-79
2022/10/31 05:55:09;;;;;;;24.07;10.20;;;;;;;;;;5016142;28;20054;-79
2022/10/31 05:57:35;;;;;;;20.37;11.00;;;;;;;;;;5017949;28;20029;-79
2022/10/31 06:00:01;;;;;;;24.07;10.50;;;;;;;;;;5031991;28;20021;-78
2022/10/31 06:02:31;;;;;;;21.23;10.30;;;;;;;;;;5015890;28;20064;-79
2022/10/31 06:04:57;;;;;;;19.90;10.43;;;;;;;;;;5023214;28;20029;-79
2022/10/31 06:07:23;;;;;;;20.70;11.33;;;;;;;;;;5030954;28;20111;-78
2022/10/31 06:09:49;;;;;;;18.63;9.83;;;;;;;;;;5032338;28;20045;-79
2022/10/31 06:12:15;;;;;;;20.37;10.33;;;;;;;;;;5018383;28;20030;-79
2022/10/31 06:14:41;;;;;;;21.10;10.63;;;;;;;;;;5020052;28;20025;-79
2022/10/31 06:17:07;;;;;;;22.03;11.87;;;;;;;;;;5022737;28;20076;-79
2022/10/31 06:19:33;;;;;;;18.47;10.27;;;;;;;;;;5019124;28;20026;-79
2022/10/31 06:21:59;;;;;;;19.90;10.43;;;;;;;;;;5023179;28;20111;-79
2022/10/31 06:24:28;;;;;;;28.63;12.37;;;;;;;;;;5022860;28;20065;-79
2022/10/31 06:26:54;;;;;;;22.97;10.63;;;;;;;;;;5012330;28;20126;-79
2022/10/31 06:29:20;;;;;;;21.47;11.37;;;;;;;;;;5024121;28;20033;-79
2022/10/31 06:31:46;;;;;;;25.23;11.03;;;;;;;;;;5020980;28;20044;-78
2022/10/31 06:34:12;;;;;;;16.40;9.43;;;;;;;;;;5019948;28;20022;-78
2022/10/31 06:36:38;;;;;;;19.13;11.50;;;;;;;;;;5023636;28;20022;-80
2022/10/31 06:39:04;;;;;;;23.97;10.03;;;;;;;;;;5020134;28;20107;-79
2022/10/31 06:41:30;;;;;;;21.37;9.93;;;;;;;;;;5022368;28;20897;-79
2022/10/31 06:43:56;;;;;;;23.37;11.03;;;;;;;;;;5034208;28;20041;-79
2022/10/31 06:46:22;;;;;;;21.37;11.60;;;;;;;;;;5022780;28;20033;-79
2022/10/31 06:48:48;;;;;;;22.50;10.50;;;;;;;;;;5023679;28;20044;-79
2022/10/31 06:51:14;;;;;;;18.90;10.70;;;;;;;;;;5022748;28;20041;-77
2022/10/31 06:53:40;;;;;;;22.83;11.27;;;;;;;;;;5026866;28;20084;-77
2022/10/31 06:56:06;;;;;;;22.60;10.80;;;;;;;;;;5023009;28;20043;-78
2022/10/31 06:58:32;;;;;;;25.40;11.23;;;;;;;;;;5021049;28;20030;-78
2022/10/31 07:01:04;;;;;;;24.00;10.77;;;;;;;;;;5056157;28;20033;-79
2022/10/31 07:03:30;;;;;;;22.08;10.90;;;;;;;;;;5023573;28;20116;-79
2022/10/31 07:05:56;;;;;;;25.57;10.27;;;;;;;;;;5025679;28;20044;-81
2022/10/31 07:08:25;;;;;;;21.80;9.60;;;;;;;;;;5020837;28;20096;-78
2022/10/31 07:10:53;;;;;;;17.07;9.70;;;;;;;;;;5023110;28;20042;-79
2022/10/31 07:13:24;;;;;;;15.63;9.90;;;;;;;;;;5027499;28;20080;-79
2022/10/31 07:15:50;;;;;;;17.00;9.13;;;;;;;;;;5019824;28;20076;-79
2022/10/31 07:18:16;;;;;;;23.67;11.03;;;;;;;;;;5022837;28;20025;-78
2022/10/31 07:20:42;;;;;;;20.13;9.20;;;;;;;;;;5021634;28;20030;-79
2022/10/31 07:23:10;;;;;;;18.37;8.93;;;;;;;;;;5030808;28;20477;-79
2022/10/31 07:25:36;;;;;;;18.53;9.67;;;;;;;;;;5020196;28;20693;-79
2022/10/31 07:28:02;;;;;;;25.50;10.60;;;;;;;;;;5021865;28;20021;-79
2022/10/31 07:30:28;;;;;;;21.43;8.40;;;;;;;;;;5023835;28;20418;-79
2022/10/31 07:32:55;;;;;;;21.67;9.60;;;;;;;;;;5022048;28;20108;-80
2022/10/31 07:35:25;;;;;;;19.77;9.23;;;;;;;;;;5034038;28;20052;-79
2022/10/31 07:37:52;;;;;;;19.07;8.47;;;;;;;;;;5020482;28;20111;-78
2022/10/31 07:40:18;;;;;;;17.33;8.77;;;;;;;;;;5025073;28;20584;-79
2022/10/31 07:42:45;;;;;;;17.40;9.83;;;;;;;;;;5032164;28;20439;-78
2022/10/31 07:45:13;;;;;;;19.90;9.33;;;;;;;;;;5020785;28;20029;-78
2022/10/31 07:47:43;;;;;;;16.13;8.07;;;;;;;;;;5019347;28;20030;-79
2022/10/31 07:50:09;;;;;;;20.80;9.43;;;;;;;;;;5018000;28;20328;-79
2022/10/31 07:52:36;;;;;;;17.63;8.60;;;;;;;;;;5022663;28;20044;-80
2022/10/31 07:55:02;;;;;;;19.13;9.07;;;;;;;;;;5032441;28;20034;-79
2022/10/31 07:57:28;;;;;;;13.83;7.93;;;;;;;;;;5020219;28;20100;-79
2022/10/31 07:59:54;;;;;;;21.00;9.03;;;;;;;;;;5032612;28;20041;-78
2022/10/31 08:02:20;;;;;;;20.57;9.30;;;;;;;;;;5023429;28;20030;-78
2022/10/31 08:04:48;;;;;;;24.90;10.47;;;;;;;;;;5018583;28;20041;-79
2022/10/31 08:07:14;;;;;;;19.17;9.03;;;;;;;;;;5029659;28;20061;-79
2022/10/31 08:09:40;;;;;;;17.47;9.30;;;;;;;;;;5021739;28;20051;-79
2022/10/31 08:12:06;;;;;;;19.53;8.57;;;;;;;;;;5024830;28;20053;-78
2022/10/31 08:14:32;;;;;;;15.57;8.00;;;;;;;;;;5020054;28;20025;-79
2022/10/31 08:16:58;;;;;;;20.20;8.80;;;;;;;;;;5033364;28;20080;-79
2022/10/31 08:19:25;;;;;;;16.77;7.73;;;;;;;;;;5022249;28;20025;-79
2022/10/31 08:21:51;;;;;;;20.60;7.67;;;;;;;;;;5020198;28;20041;-79
2022/10/31 08:24:18;;;;;;;19.37;8.40;;;;;;;;;;5019411;28;20029;-79
2022/10/31 08:26:44;;;;;;;18.07;7.83;;;;;;;;;;5020965;28;20072;-79
2022/10/31 08:29:12;;;;;;;16.20;8.30;;;;;;;;;;5035513;28;20064;-79
2022/10/31 08:31:38;;;;;;;21.83;7.87;;;;;;;;;;5019584;28;20452;-77
2022/10/31 08:34:04;;;;;;;14.97;8.30;;;;;;;;;;5017501;28;20033;-79
2022/10/31 08:36:30;;;;;;;14.03;7.63;;;;;;;;;;5019350;28;20025;-79
2022/10/31 08:38:56;;;;;;;13.90;7.93;;;;;;;;;;5031696;28;20029;-79
2022/10/31 08:41:22;;;;;;;14.60;7.83;;;;;;;;;;5029451;28;20109;-79
2022/10/31 08:43:48;;;;;;;23.37;8.10;;;;;;;;;;5021132;28;20458;-79
2022/10/31 08:46:14;;;;;;;21.03;7.63;;;;;;;;;;5031692;28;20100;-79
2022/10/31 08:48:41;;;;;;;17.57;7.63;;;;;;;;;;5032265;28;20042;-79
2022/10/31 08:51:07;;;;;;;19.80;8.70;;;;;;;;;;5032022;28;20037;-79
2022/10/31 08:53:33;;;;;;;19.83;7.72;;;;;;;;;;5018437;28;20045;-79
2022/10/31 08:55:59;;;;;;;14.60;7.77;;;;;;;;;;5036379;28;20030;-80
2022/10/31 08:58:25;;;;;;;16.47;8.03;;;;;;;;;;5031486;28;21732;-79
2022/10/31 09:00:53;;;;;;;17.35;7.35;;;;;;;;;;5028727;28;20570;-79
2022/10/31 09:03:21;;;;;;;18.45;7.20;;;;;;;;;;5033270;28;20037;-79
2022/10/31 09:05:47;;;;;;;12.57;6.75;;;;;;;;;;5022572;28;20516;-79
2022/10/31 09:08:13;;;;;;;20.55;8.65;;;;;;;;;;5033679;28;20037;-79
2022/10/31 09:10:40;;;;;;;21.88;8.65;;;;;;;;;;5030626;28;20026;-79
2022/10/31 09:13:16;;;;;;;17.38;8.68;;;;;;;;;;5021104;28;20398;-79
2022/10/31 09:15:43;;;;;;;16.08;6.85;;;;;;;;;;5031088;28;20032;-78
2022/10/31 09:18:10;;;;;;;16.30;7.00;;;;;;;;;;5016879;28;20106;-79
2022/10/31 09:20:37;;;;;;;15.30;7.22;;;;;;;;;;5017427;28;20106;-79
2022/10/31 09:23:06;;;;;;;17.33;7.32;;;;;;;;;;5022418;28;20120;-78
2022/10/31 09:25:35;;;;;;;16.58;7.20;;;;;;;;;;5017166;28;20021;-79
2022/10/31 09:28:02;;;;;;;22.60;7.28;;;;;;;;;;5035531;28;20150;-79
2022/10/31 09:30:30;;;;;;;21.05;7.75;;;;;;;;;;5020474;28;20398;-79
2022/10/31 09:32:57;;;;;;;20.77;7.05;;;;;;;;;;5031155;28;20126;-79
2022/10/31 09:35:23;;;;;;;24.80;8.30;;;;;;;;;;5017873;28;20122;-79
2022/10/31 09:38:03;;;;;;;16.85;7.30;;;;;;;;;;5031582;28;20470;-79
2022/10/31 09:40:32;;;;;;;19.48;7.35;;;;;;;;;;5030957;28;20049;-79
2022/10/31 09:43:04;;;;;;;19.10;7.20;;;;;;;;;;5020090;28;20651;-79
2022/10/31 09:45:45;;;;;;;15.15;6.10;;;;;;;;;;5017235;28;20113;-79
2022/10/31 09:48:29;;;;;;;12.68;6.18;;;;;;;;;;5020419;28;20462;-79
2022/10/31 09:50:59;;;;;;;21.85;6.72;;;;;;;;;;5035244;28;20037;-78
2022/10/31 09:53:45;;;;;;;20.50;6.78;;;;;;;;;;5026870;28;20025;-79
2022/10/31 09:56:16;;;;;;;12.57;6.97;;;;;;;;;;5024088;28;20041;-79
2022/10/31 09:58:46;;;;;;;19.15;6.57;;;;;;;;;;5021875;28;20056;-79
2022/10/31 10:01:18;;;;;;;22.30;7.57;;;;;;;;;;5033129;28;20057;-79
2022/10/31 10:03:46;;;;;;;15.77;7.18;;;;;;;;;;5022089;28;20474;-80
2022/10/31 10:06:16;;;;;;;18.75;7.82;;;;;;;;;;5021531;28;20026;-79
2022/10/31 10:08:42;;;;;;;21.95;7.38;;;;;;;;;;5020468;28;20099;-79
2022/10/31 10:11:11;;;;;;;11.45;6.93;;;;;;;;;;5022965;28;20025;-79
2022/10/31 10:13:37;;;;;;;22.50;7.68;;;;;;;;;;5033038;28;20029;-80
2022/10/31 10:16:12;;;;;;;16.90;7.45;;;;;;;;;;5024004;28;20455;-80
2022/10/31 10:18:53;;;;;;;18.75;7.50;;;;;;;;;;5033263;28;20030;-80
2022/10/31 10:21:27;;;;;;;13.93;6.88;;;;;;;;;;5031090;28;21763;-80
2022/10/31 10:24:03;;;;;;;15.93;6.32;;;;;;;;;;5030947;28;20111;-79
2022/10/31 10:26:38;;;;;;;19.88;7.40;;;;;;;;;;5025731;28;21791;-79
2022/10/31 10:29:27;;;;;;;17.02;6.78;;;;;;;;;;5034459;28;20065;-79
2022/10/31 10:31:55;;;;;;;17.60;7.00;;;;;;;;;;5032650;28;20104;-79
2022/10/31 10:34:24;;;;;;;21.05;6.72;;;;;;;;;;5032486;28;20042;-80
2022/10/31 10:36:56;;;;;;;16.42;6.80;;;;;;;;;;5020327;28;20033;-79
2022/10/31 10:39:24;;;;;;;15.32;7.65;;;;;;;;;;5031684;28;20056;-79
2022/10/31 10:47:43;;;;;;;16.85;6.97;;;;;;;;;;5020156;28;20055;-79
2022/10/31 10:50:19;;;;;;;28.67;7.72;;;;;;;;;;5035094;28;20034;-80
2022/10/31 10:52:52;;;;;;;29.50;7.22;;;;;;;;;;5032971;28;20939;-80
2022/10/31 10:55:18;;;;;;;22.75;7.47;;;;;;;;;;5033044;28;20030;-79
2022/10/31 10:57:49;;;;;;;17.58;7.53;;;;;;;;;;5039360;28;20033;-79
2022/10/31 11:00:20;;;;;;;17.38;7.43;;;;;;;;;;5023834;28;20510;-79
2022/10/31 11:02:47;;;;;;;19.10;7.70;;;;;;;;;;5032215;28;20125;-80
2022/10/31 11:05:22;;;;;;;13.55;6.10;;;;;;;;;;5031514;28;20446;-81
2022/10/31 11:07:51;;;;;;;13.27;5.88;;;;;;;;;;5022585;28;20029;-80
2022/10/31 11:10:17;;;;;;;15.25;6.20;;;;;;;;;;5036321;28;20025;-80
2022/10/31 11:12:47;;;;;;;16.33;6.35;;;;;;;;;;5020335;28;20026;-78
2022/10/31 11:15:23;;;;;;;14.38;5.68;;;;;;;;;;5031283;28;20025;-80
2022/10/31 11:17:50;;;;;;;15.05;5.50;;;;;;;;;;5020126;28;20026;-80
2022/10/31 11:20:17;;;;;;;12.40;5.43;;;;;;;;;;5033133;28;20033;-80
2022/10/31 11:22:44;;;;;;;12.73;6.03;;;;;;;;;;5022426;28;20125;-80
2022/10/31 11:25:19;;;;;;;14.88;5.45;;;;;;;;;;5020871;28;20034;-80
2022/10/31 11:28:06;;;;;;;20.70;5.72;;;;;;;;;;5033897;28;20037;-81
2022/10/31 11:30:42;;;;;;;18.33;4.85;;;;;;;;;;5032774;28;20481;-80
2022/10/31 11:33:18;;;;;;;17.33;5.63;;;;;;;;;;5022444;28;20037;-80
2022/10/31 11:35:44;;;;;;;12.32;4.93;;;;;;;;;;5021425;28;20041;-81
2022/10/31 11:38:16;;;;;;;16.13;4.70;;;;;;;;;;5024075;28;20037;-80
2022/10/31 11:40:51;;;;;;;14.65;4.78;;;;;;;;;;5023374;28;20030;-80
2022/10/31 11:43:18;;;;;;;11.32;4.72;;;;;;;;;;5021748;28;20441;-80
2022/10/31 11:45:44;;;;;;;15.50;5.60;;;;;;;;;;5020921;28;20029;-80
2022/10/31 11:48:18;;;;;;;13.63;4.47;;;;;;;;;;5022199;28;20128;-80
2022/10/31 11:50:48;;;;;;;11.95;4.82;;;;;;;;;;5021369;28;20458;-77
2022/10/31 11:53:16;;;;;;;9.05;4.80;;;;;;;;;;5024944;28;20406;-80
2022/10/31 11:56:01;;;;;;;13.23;4.38;;;;;;;;;;5018929;28;20033;-79
2022/10/31 11:58:34;;;;;;;11.98;4.80;;;;;;;;;;5031818;28;20049;-79
2022/10/31 12:00:59;;;;;;;;;;;;;;;;;;5022563;28;20123;-80
2022/10/31 12:03:32;;;;;;;8.38;4.90;;;;;;;;;;5032921;28;19913;-79
2022/10/31 12:06:05;;;;;;;14.02;4.43;;;;;;;;;;5023706;28;20088;-78
2022/10/31 12:08:34;;;;;;;9.13;4.95;;;;;;;;;;5023991;28;20022;-80
2022/10/31 12:11:09;;;;;;;10.32;4.38;;;;;;;;;;5023130;28;20033;-79
2022/10/31 12:13:46;;;;;;;15.07;4.93;;;;;;;;;;5021869;28;20033;-80
2022/10/31 12:16:33;;;;;;;20.67;5.13;;;;;;;;;;5023799;28;20026;-80
2022/10/31 12:19:06;;;;;;;16.83;5.03;;;;;;;;;;5039438;28;20438;-80
2022/10/31 12:21:42;;;;;;;10.38;4.30;;;;;;;;;;5018474;28;20034;-79
2022/10/31 12:24:14;;;;;;;20.42;5.50;;;;;;;;;;5037932;28;20048;-79
2022/10/31 12:26:40;;;;;;;11.40;3.97;;;;;;;;;;5037362;28;20044;-80
2022/10/31 12:29:12;;;;;;;12.95;4.30;;;;;;;;;;5021319;28;20029;-79
2022/10/31 12:31:50;;;;;;;12.13;4.50;;;;;;;;;;5030567;28;20025;-79
2022/10/31 12:34:28;;;;;;;12.02;4.50;;;;;;;;;;5026966;28;20069;-80
2022/10/31 12:36:54;;;;;;;12.82;3.83;;;;;;;;;;5044222;28;20026;-80
2022/10/31 12:39:35;;;;;;;14.50;5.30;;;;;;;;;;5039024;28;20034;-81
2022/10/31 12:42:17;;;;;;;14.77;4.50;;;;;;;;;;5039730;28;20033;-80
2022/10/31 12:44:43;;;;;;;18.00;4.30;;;;;;;;;;5031106;28;20038;-80
2022/10/31 12:47:21;;;;;;;8.60;4.45;;;;;;;;;;5050879;28;20045;-81
2022/10/31 12:49:47;;;;;;;15.20;4.22;;;;;;;;;;5042685;28;20049;-80
2022/10/31 12:52:13;;;;;;;11.68;3.78;;;;;;;;;;5046676;28;20025;-79
2022/10/31 12:54:58;;;;;;;12.15;3.80;;;;;;;;;;5028432;28;20025;-80
2022/10/31 12:57:31;;;;;;;13.48;4.47;;;;;;;;;;5042829;28;20029;-78
2022/10/31 13:00:00;;;;;;;14.27;4.20;;;;;;;;;;5034589;28;20033;-80
2022/10/31 13:02:32;;;;;;;11.77;4.07;;;;;;;;;;5030033;28;20036;-80
2022/10/31 13:05:13;;;;;;;12.95;4.68;;;;;;;;;;5040021;28;20119;-79
2022/10/31 13:07:43;;;;;;;11.15;3.75;;;;;;;;;;5047714;28;20018;-78
2022/10/31 13:10:21;;;;;;;15.65;4.20;;;;;;;;;;5037282;28;20034;-80
2022/10/31 13:12:50;;;;;;;15.18;4.10;;;;;;;;;;5031574;28;20073;-77
2022/10/31 13:15:21;;;;;;;16.13;4.55;;;;;;;;;;5041455;28;20053;-80
2022/10/31 13:18:05;;;;;;;16.05;4.50;;;;;;;;;;5046287;28;20029;-78
2022/10/31 13:20:45;;;;;;;16.15;4.05;;;;;;;;;;5030399;28;20037;-80
2022/10/31 13:23:21;;;;;;;16.60;4.38;;;;;;;;;;5042106;28;20777;-80
2022/10/31 13:25:52;;;;;;;8.18;3.50;;;;;;;;;;5049020;28;20030;-78
2022/10/31 13:28:21;;;;;;;14.35;4.65;;;;;;;;;;5037687;28;20026;-78
2022/10/31 13:30:48;;;;;;;16.58;3.95;;;;;;;;;;5052219;28;20097;-80
2022/10/31 13:33:17;;;;;;;12.98;4.00;;;;;;;;;;5031359;28;20042;-79
2022/10/31 13:35:53;;;;;;;12.75;3.88;;;;;;;;;;5026967;28;20045;-80
2022/10/31 13:38:38;;;;;;;12.20;4.13;;;;;;;;;;5024796;28;20037;-79
2022/10/31 13:41:23;;;;;;;16.98;4.90;;;;;;;;;;5035781;28;20045;-80
2022/10/31 13:43:55;;;;;;;13.07;3.92;;;;;;;;;;5024937;28;20041;-81
2022/10/31 13:46:26;;;;;;;10.27;3.92;;;;;;;;;;5026696;28;20030;-80
2022/10/31 13:48:52;;;;;;;15.45;4.03;;;;;;;;;;5034281;28;20057;-80
2022/10/31 13:51:29;;;;;;;12.93;3.63;;;;;;;;;;5036123;28;20466;-80
2022/10/31 13:53:55;;;;;;;12.52;4.85;;;;;;;;;;5032945;28;20032;-80
2022/10/31 13:56:29;;;;;;;10.70;4.07;;;;;;;;;;5020603;28;20026;-80
2022/10/31 13:59:00;;;;;;;15.38;4.45;;;;;;;;;;5036634;28;20095;-81
2022/10/31 14:01:28;;;;;;;13.30;4.60;;;;;;;;;;5038457;28;20061;-80
2022/10/31 14:04:10;;;;;;;10.68;4.28;;;;;;;;;;5038082;28;20062;-78
2022/10/31 14:06:39;;;;;;;13.52;4.35;;;;;;;;;;5049934;28;20746;-77
2022/10/31 14:09:05;;;;;;;10.77;4.30;;;;;;;;;;5049951;28;20052;-81
2022/10/31 14:11:31;;;;;;;16.50;3.97;;;;;;;;;;5036715;28;20037;-80
2022/10/31 14:13:58;;;;;;;9.27;3.88;;;;;;;;;;5034261;28;20037;-79
2022/10/31 14:16:27;;;;;;;10.60;4.10;;;;;;;;;;5044112;28;20037;-79
2022/10/31 14:19:07;;;;;;;11.65;4.90;;;;;;;;;;5035722;28;20030;-81
2022/10/31 14:21:41;;;;;;;17.00;4.65;;;;;;;;;;5037542;28;20037;-79
2022/10/31 14:24:15;;;;;;;15.15;4.72;;;;;;;;;;5025853;28;20104;-79
2022/10/31 14:26:51;;;;;;;16.65;4.95;;;;;;;;;;5029444;28;20033;-79
2022/10/31 14:29:17;;;;;;;11.40;3.70;;;;;;;;;;5033115;28;20030;-79
2022/10/31 14:31:44;;;;;;;14.35;4.97;;;;;;;;;;5040082;28;20036;-78
2022/10/31 14:34:20;;;;;;;15.23;3.60;;;;;;;;;;5023770;28;20034;-79
2022/10/31 14:37:05;;;;;;;11.35;4.00;;;;;;;;;;5037330;28;20037;-78
2022/10/31 14:39:40;;;;;;;19.73;4.60;;;;;;;;;;5023990;28;20439;-77
2022/10/31 14:42:12;;;;;;;22.95;5.30;;;;;;;;;;5038760;28;20521;-79
2022/10/31 14:44:41;;;;;;;17.03;4.77;;;;;;;;;;5026782;28;20034;-79
2022/10/31 14:47:16;;;;;;;17.27;5.10;;;;;;;;;;5035073;28;20030;-78